Time;durP1;ratioP1;P1;durP2;ratioP2;P2;SDS_P1;SDS_P2;PMS_P1;PMS_P2;Temp;Humidity;BMP_temperature;BMP_pressure;BME280_temperature;BME280_humidity;BME280_pressure;Samples;Min_cycle;Max_cycle;Signal;HPM_P1;HPM_P2
2021/04/03 00:00:36;;;;;;;;;;;19.60;57.20;;;;;;5069091;28;1961;-66
2021/04/03 00:03:02;;;;;;;;;;;19.60;57.20;;;;;;5067736;28;1275;-67
2021/04/03 00:05:27;;;;;;;;;;;19.60;57.20;;;;;;5076122;28;1266;-67
2021/04/03 00:07:53;;;;;;;;;;;19.60;57.30;;;;;;5053171;28;1793;-67
2021/04/03 00:10:25;;;;;;;;;;;19.60;57.30;;;;;;5040248;28;1241;-68
2021/04/03 00:12:51;;;;;;;;;;;19.60;57.30;;;;;;5049618;28;1383;-67
2021/04/03 00:15:16;;;;;;;;;;;19.50;57.30;;;;;;5071034;28;1131;-68
2021/04/03 00:17:41;;;;;;;;;;;19.50;57.30;;;;;;5070942;28;1355;-69
2021/04/03 00:20:08;;;;;;;;;;;19.50;57.30;;;;;;5050874;28;1906;-68
2021/04/03 00:22:33;;;;;;;;;;;19.60;57.30;;;;;;5066314;28;1093;-69
2021/04/03 00:24:59;;;;;;;;;;;19.50;57.30;;;;;;5070200;28;1343;-68
2021/04/03 00:27:24;;;;;;;;;;;19.50;57.30;;;;;;5067763;28;1357;-69
2021/04/03 00:29:49;;;;;;;;;;;19.50;57.30;;;;;;5050777;28;1400;-69
2021/04/03 00:32:15;;;;;;;;;;;19.50;57.30;;;;;;5074450;28;1250;-67
2021/04/03 00:34:40;;;;;;;;;;;19.50;57.30;;;;;;5069764;28;1306;-70
2021/04/03 00:37:06;;;;;;;;;;;19.50;57.30;;;;;;5066864;28;1277;-69
2021/04/03 00:39:31;;;;;;;;;;;19.50;57.40;;;;;;5069675;28;1902;-68
2021/04/03 00:41:57;;;;;;;;;;;19.50;58.00;;;;;;5070998;28;1259;-69
2021/04/03 00:44:22;;;;;;;;;;;19.50;57.40;;;;;;5068724;28;1336;-69
2021/04/03 00:46:47;;;;;;;;;;;19.50;57.40;;;;;;5065948;28;1398;-67
2021/04/03 00:49:13;;;;;;;;;;;19.50;57.40;;;;;;5056436;28;1346;-68
2021/04/03 00:51:39;;;;;;;;;;;19.50;57.40;;;;;;5068094;28;1807;-68
2021/04/03 00:54:05;;;;;;;;;;;19.50;57.40;;;;;;5072755;28;1164;-68
2021/04/03 00:56:31;;;;;;;;;;;19.50;57.40;;;;;;5069349;28;1171;-68
2021/04/03 00:58:56;;;;;;;;;;;19.50;57.40;;;;;;5072578;28;1909;-67
2021/04/03 01:01:21;;;;;;;;;;;19.40;57.40;;;;;;5064531;28;1041;-68
2021/04/03 01:03:47;;;;;;;;;;;19.50;57.40;;;;;;5057744;28;1219;-69
2021/04/03 01:06:12;;;;;;;;;;;19.50;57.40;;;;;;5046905;28;1247;-68
2021/04/03 01:08:38;;;;;;;;;;;19.50;57.50;;;;;;5072852;28;1357;-70
2021/04/03 01:11:03;;;;;;;;;;;19.40;57.40;;;;;;5065925;28;1270;-69
2021/04/03 01:13:44;;;;;;;;;;;19.50;57.50;;;;;;5070590;28;1219;-69
2021/04/03 01:16:24;;;;;;;;;;;19.40;57.40;;;;;;5074223;28;1275;-69
2021/04/03 01:18:49;;;;;;;;;;;19.50;57.50;;;;;;5068933;28;1984;-69
2021/04/03 01:21:16;;;;;;;;;;;19.50;57.60;;;;;;5073346;28;1235;-69
2021/04/03 01:24:00;;;;;;;;;;;19.40;57.50;;;;;;5065347;28;1290;-69
2021/04/03 01:26:44;;;;;;;;;;;19.40;57.50;;;;;;5062716;28;1432;-69
2021/04/03 01:29:12;;;;;;;;;;;19.40;57.50;;;;;;5066264;28;1093;-69
2021/04/03 01:31:38;;;;;;;;;;;19.50;57.60;;;;;;5066106;28;1254;-67
2021/04/03 01:34:04;;;;;;;;;;;19.50;57.60;;;;;;5054640;28;1364;-67
2021/04/03 01:36:31;;;;;;;;;;;19.40;57.50;;;;;;5066254;28;1171;-68
2021/04/03 01:38:58;;;;;;;;;;;19.40;57.50;;;;;;5048573;28;1906;-69
2021/04/03 01:41:24;;;;;;;;;;;19.40;57.50;;;;;;5054026;28;1317;-70
2021/04/03 01:43:50;;;;;;;;;;;19.40;57.50;;;;;;5066290;28;1310;-69
2021/04/03 01:46:15;;;;;;;;;;;19.40;57.50;;;;;;5069777;28;1259;-68
2021/04/03 01:48:41;;;;;;;;;;;19.40;57.50;;;;;;5046754;28;1271;-69
2021/04/03 01:51:06;;;;;;;;;;;19.40;57.50;;;;;;5073730;28;1203;-68
2021/04/03 01:53:32;;;;;;;;;;;19.40;57.50;;;;;;5068742;28;1168;-69
2021/04/03 01:55:57;;;;;;;;;;;19.40;57.50;;;;;;5069243;28;1269;-69
2021/04/03 01:58:22;;;;;;;;;;;19.40;57.60;;;;;;5051548;28;1319;-68
2021/04/03 02:00:48;;;;;;;;;;;19.40;57.60;;;;;;5051554;28;1906;-68
2021/04/03 02:03:13;;;;;;;;;;;19.40;57.60;;;;;;5051761;28;1235;-67
2021/04/03 02:05:39;;;;;;;;;;;19.40;57.60;;;;;;5071431;28;1229;-66
2021/04/03 02:08:04;;;;;;;;;;;19.40;57.60;;;;;;5072092;28;1424;-66
2021/04/03 02:10:30;;;;;;;;;;;19.40;57.60;;;;;;5080966;28;1001;-66
2021/04/03 02:12:55;;;;;;;;;;;19.30;57.50;;;;;;5071491;28;1219;-66
2021/04/03 02:15:23;;;;;;;;;;;19.40;57.60;;;;;;5073384;28;2504;-65
2021/04/03 02:17:49;;;;;;;;;;;19.40;57.60;;;;;;5070933;28;1349;-67
2021/04/03 02:20:15;;;;;;;;;;;19.40;57.60;;;;;;5071320;28;1952;-67
2021/04/03 02:22:40;;;;;;;;;;;19.40;57.60;;;;;;5071119;28;1406;-69
2021/04/03 02:25:06;;;;;;;;;;;19.30;57.60;;;;;;5065397;28;1297;-68
2021/04/03 02:27:32;;;;;;;;;;;19.40;57.60;;;;;;5059274;28;1342;-68
2021/04/03 02:30:11;;;;;;;;;;;19.40;57.70;;;;;;5071479;28;1329;-67
2021/04/03 02:32:37;;;;;;;;;;;19.30;57.60;;;;;;5067492;28;1326;-68
2021/04/03 02:35:02;;;;;;;;;;;19.30;57.60;;;;;;5067719;28;1227;-68
2021/04/03 02:37:28;;;;;;;;;;;19.40;57.70;;;;;;5070288;28;1290;-68
2021/04/03 02:39:53;;;;;;;;;;;19.40;57.70;;;;;;5064545;28;1954;-68
2021/04/03 02:42:19;;;;;;;;;;;19.30;57.60;;;;;;5066892;28;1302;-68
2021/04/03 02:44:52;;;;;;;;;;;19.30;57.60;;;;;;5051569;28;1236;-67
2021/04/03 02:47:21;;;;;;;;;;;19.30;57.60;;;;;;5051187;28;1373;-66
2021/04/03 02:49:54;;;;;;;;;;;19.30;57.60;;;;;;5053806;28;1702;-67
2021/04/03 02:52:19;;;;;;;;;;;19.30;57.60;;;;;;5048634;28;1330;-67
2021/04/03 02:54:44;;;;;;;;;;;19.30;57.60;;;;;;5069634;28;1062;-67
2021/04/03 02:57:11;;;;;;;;;;;19.30;57.60;;;;;;5077392;28;1521;-67
2021/04/03 02:59:37;;;;;;;;;;;19.30;57.70;;;;;;5077957;28;1905;-68
2021/04/03 03:02:02;;;;;;;;;;;19.30;57.70;;;;;;5077771;28;1728;-68
2021/04/03 03:04:28;;;;;;;;;;;19.30;57.70;;;;;;5077659;28;1693;-68
2021/04/03 03:06:53;;;;;;;;;;;19.30;57.70;;;;;;5064326;28;1485;-67
2021/04/03 03:09:19;;;;;;;;;;;19.30;57.60;;;;;;5077489;28;1373;-68
2021/04/03 03:11:45;;;;;;;;;;;19.30;57.40;;;;;;5095816;28;1341;-68
2021/04/03 03:14:14;;;;;;;;;;;19.40;57.50;;;;;;5084378;28;1261;-68
2021/04/03 03:16:40;;;;;;;;;;;19.40;57.40;;;;;;5074152;28;1277;-67
2021/04/03 03:19:06;;;;;;;;;;;19.40;57.30;;;;;;5073448;28;1902;-68
2021/04/03 03:21:31;;;;;;;;;;;19.50;57.30;;;;;;5074276;28;1527;-67
2021/04/03 03:23:57;;;;;;;;;;;19.60;57.20;;;;;;5074258;28;1079;-67
2021/04/03 03:26:22;;;;;;;;;;;19.70;57.00;;;;;;5074013;28;1376;-68
2021/04/03 03:28:48;;;;;;;;;;;19.80;56.80;;;;;;5073806;28;1362;-67
2021/04/03 03:31:13;;;;;;;;;;;19.90;56.60;;;;;;5073997;28;1426;-68
2021/04/03 03:33:38;;;;;;;;;;;20.00;56.40;;;;;;5075019;28;1326;-67
2021/04/03 03:36:05;;;;;;;;;;;20.10;56.20;;;;;;5075108;28;1388;-67
2021/04/03 03:38:30;;;;;;;;;;;20.20;56.00;;;;;;5075070;28;1213;-67
2021/04/03 03:40:56;;;;;;;;;;;20.30;55.80;;;;;;5074911;28;1898;-68
2021/04/03 03:43:21;;;;;;;;;;;20.30;55.60;;;;;;5073920;28;1308;-68
2021/04/03 03:45:47;;;;;;;;;;;20.40;55.40;;;;;;5074933;28;1310;-67
2021/04/03 03:48:13;;;;;;;;;;;20.50;55.30;;;;;;5073297;28;1314;-67
2021/04/03 03:50:38;;;;;;;;;;;20.50;55.10;;;;;;5074940;28;1338;-68
2021/04/03 03:53:04;;;;;;;;;;;20.60;55.00;;;;;;5074948;28;1290;-68
2021/04/03 03:55:29;;;;;;;;;;;20.70;54.90;;;;;;5074811;28;1274;-67
2021/04/03 03:57:55;;;;;;;;;;;20.70;54.80;;;;;;5074304;28;1313;-68
2021/04/03 04:00:20;;;;;;;;;;;20.70;54.70;;;;;;5074615;28;1902;-68
2021/04/03 04:02:45;;;;;;;;;;;20.80;54.60;;;;;;5074780;28;1269;-68
2021/04/03 04:05:11;;;;;;;;;;;20.80;54.60;;;;;;5074113;28;1289;-67
2021/04/03 04:07:37;;;;;;;;;;;20.80;54.50;;;;;;5074083;28;1274;-68
2021/04/03 04:10:04;;;;;;;;;;;20.90;54.40;;;;;;5074542;28;1406;-68
2021/04/03 04:12:30;;;;;;;;;;;20.90;54.30;;;;;;5073251;28;1308;-68
2021/04/03 04:14:55;;;;;;;;;;;20.90;54.30;;;;;;5072679;28;1337;-68
2021/04/03 04:17:21;;;;;;;;;;;21.00;54.30;;;;;;5072618;28;1284;-68
2021/04/03 04:19:46;;;;;;;;;;;21.00;54.20;;;;;;5056279;28;1906;-68
2021/04/03 04:22:12;;;;;;;;;;;21.00;54.10;;;;;;5074375;28;1266;-67
2021/04/03 04:24:37;;;;;;;;;;;21.00;54.10;;;;;;5074387;28;1291;-68
2021/04/03 04:27:03;;;;;;;;;;;21.10;54.10;;;;;;5073969;28;1335;-67
2021/04/03 04:29:28;;;;;;;;;;;21.10;54.10;;;;;;5073941;28;1337;-67
2021/04/03 04:31:53;;;;;;;;;;;21.10;54.00;;;;;;5073917;28;1281;-67
2021/04/03 04:34:19;;;;;;;;;;;21.10;54.00;;;;;;5074182;28;1459;-67
2021/04/03 04:36:44;;;;;;;;;;;21.20;54.00;;;;;;5074018;28;1304;-66
2021/04/03 04:39:10;;;;;;;;;;;21.20;53.90;;;;;;5073523;28;1889;-69
2021/04/03 04:41:36;;;;;;;;;;;21.20;53.90;;;;;;5074144;28;1263;-68
2021/04/03 04:44:02;;;;;;;;;;;21.20;53.80;;;;;;5072685;28;980;-68
2021/04/03 04:46:27;;;;;;;;;;;21.30;53.80;;;;;;5073995;28;1334;-69
2021/04/03 04:48:53;;;;;;;;;;;21.30;53.80;;;;;;5073392;28;1190;-68
2021/04/03 04:51:18;;;;;;;;;;;21.30;53.80;;;;;;5073636;28;1225;-68
2021/04/03 04:53:44;;;;;;;;;;;21.30;53.70;;;;;;5073692;28;1075;-68
2021/04/03 04:56:09;;;;;;;;;;;21.30;53.70;;;;;;5073651;28;1337;-68
2021/04/03 04:58:35;;;;;;;;;;;21.30;53.70;;;;;;5073049;28;1317;-69
2021/04/03 05:01:00;;;;;;;;;;;21.40;53.70;;;;;;5073212;28;1927;-69
2021/04/03 05:03:27;;;;;;;;;;;21.40;53.70;;;;;;5073419;28;1254;-69
2021/04/03 05:05:53;;;;;;;;;;;21.40;53.70;;;;;;5073519;28;1267;-69
2021/04/03 05:08:18;;;;;;;;;;;21.40;53.60;;;;;;5073034;28;1262;-69
2021/04/03 05:10:44;;;;;;;;;;;21.40;53.60;;;;;;5073375;28;1378;-68
2021/04/03 05:13:09;;;;;;;;;;;21.40;53.60;;;;;;5074877;28;1324;-70
2021/04/03 05:15:35;;;;;;;;;;;21.40;53.60;;;;;;5093252;28;1371;-68
2021/04/03 05:18:00;;;;;;;;;;;21.40;53.50;;;;;;5092242;28;1435;-69
2021/04/03 05:20:25;;;;;;;;;;;21.50;53.60;;;;;;5093437;28;1961;-70
2021/04/03 05:22:51;;;;;;;;;;;21.50;53.50;;;;;;5058507;28;1360;-70
2021/04/03 05:25:16;;;;;;;;;;;21.50;53.50;;;;;;5093453;28;1074;-68
2021/04/03 05:27:42;;;;;;;;;;;21.50;53.50;;;;;;5092769;28;1260;-69
2021/04/03 05:30:08;;;;;;;;;;;21.50;53.50;;;;;;5058380;28;1613;-69
2021/04/03 05:32:33;;;;;;;;;;;21.50;53.50;;;;;;5075041;28;1319;-69
2021/04/03 05:34:58;;;;;;;;;;;21.50;53.50;;;;;;5093487;28;1070;-68
2021/04/03 05:37:24;;;;;;;;;;;21.50;53.60;;;;;;5074610;28;1305;-70
2021/04/03 05:39:49;;;;;;;;;;;21.50;53.60;;;;;;5093143;28;1894;-69
2021/04/03 05:42:16;;;;;;;;;;;21.50;53.60;;;;;;5092918;28;1348;-65
2021/04/03 05:44:44;;;;;;;;;;;21.50;53.60;;;;;;5073241;28;1246;-64
2021/04/03 05:47:10;;;;;;;;;;;21.50;53.60;;;;;;5087612;28;1338;-64
2021/04/03 05:49:36;;;;;;;;;;;21.50;53.70;;;;;;5093171;28;1268;-64
2021/04/03 05:52:02;;;;;;;;;;;21.40;53.70;;;;;;5092787;28;1279;-65
2021/04/03 05:54:28;;;;;;;;;;;21.40;53.70;;;;;;5074974;28;1066;-64
2021/04/03 05:56:53;;;;;;;;;;;21.40;53.80;;;;;;5092611;28;1263;-64
2021/04/03 05:59:19;;;;;;;;;;;21.40;53.80;;;;;;5074335;28;1913;-64
2021/04/03 06:01:45;;;;;;;;;;;21.40;53.80;;;;;;5093167;28;1383;-64
2021/04/03 06:04:10;;;;;;;;;;;21.40;53.90;;;;;;5075006;28;1074;-64
2021/04/03 06:06:36;;;;;;;;;;;21.30;53.90;;;;;;5077623;28;1348;-69
2021/04/03 06:09:01;;;;;;;;;;;21.40;54.00;;;;;;5070982;28;1395;-70
2021/04/03 06:11:26;;;;;;;;;;;21.30;54.00;;;;;;5054476;28;1684;-68
2021/04/03 06:13:58;;;;;;;;;;;21.30;54.10;;;;;;5079449;28;1289;-68
2021/04/03 06:16:27;;;;;;;;;;;21.30;54.10;;;;;;5079261;28;1416;-68
2021/04/03 06:19:06;;;;;;;;;;;21.30;54.20;;;;;;5070086;28;1237;-68
2021/04/03 06:21:31;;;;;;;;;;;21.20;54.20;;;;;;5071264;28;1290;-68
2021/04/03 06:23:56;;;;;;;;;;;21.20;54.30;;;;;;5071371;28;1257;-68
2021/04/03 06:26:22;;;;;;;;;;;21.20;54.30;;;;;;5072133;28;1119;-68
2021/04/03 06:28:47;;;;;;;;;;;21.20;54.40;;;;;;5056236;28;1290;-68
2021/04/03 06:31:13;;;;;;;;;;;21.20;54.40;;;;;;5076254;28;1306;-69
2021/04/03 06:33:39;;;;;;;;;;;21.10;54.40;;;;;;5076243;28;1261;-69
2021/04/03 06:36:05;;;;;;;;;;;21.10;54.50;;;;;;5076295;28;1373;-69
2021/04/03 06:38:31;;;;;;;;;;;21.10;54.50;;;;;;5074816;28;1329;-69
2021/04/03 06:41:13;;;;;;;;;;;21.10;54.60;;;;;;5075749;28;1940;-69
2021/04/03 06:43:39;;;;;;;;;;;21.10;54.60;;;;;;5076057;28;1337;-69
2021/04/03 06:46:09;;;;;;;;;;;21.00;54.60;;;;;;5076050;28;1039;-69
2021/04/03 06:48:34;;;;;;;;;;;21.00;54.60;;;;;;5074360;28;1424;-69
2021/04/03 06:51:00;;;;;;;;;;;21.00;54.70;;;;;;5082373;28;1410;-70
2021/04/03 06:53:25;;;;;;;;;;;21.00;54.70;;;;;;5078104;28;1283;-69
2021/04/03 06:55:51;;;;;;;;;;;21.00;54.70;;;;;;5095887;28;1110;-70
2021/04/03 06:58:16;;;;;;;;;;;21.00;54.70;;;;;;5077580;28;1393;-69
2021/04/03 07:00:42;;;;;;;;;;;21.00;54.80;;;;;;5077608;28;1902;-69
2021/04/03 07:03:17;;;;;;;;;;;20.90;54.80;;;;;;5077947;28;1285;-69
2021/04/03 07:05:44;;;;;;;;;;;20.90;54.80;;;;;;5070383;28;1192;-67
2021/04/03 07:08:09;;;;;;;;;;;20.90;54.90;;;;;;5074999;28;1357;-68
2021/04/03 07:10:35;;;;;;;;;;;20.90;54.90;;;;;;5075855;28;1044;-68
2021/04/03 07:13:01;;;;;;;;;;;20.90;55.00;;;;;;5075270;28;1321;-67
2021/04/03 07:15:27;;;;;;;;;;;20.90;55.00;;;;;;5095930;28;1295;-66
2021/04/03 07:17:52;;;;;;;;;;;20.90;55.00;;;;;;5095235;28;1414;-68
2021/04/03 07:20:19;;;;;;;;;;;20.80;55.00;;;;;;5077778;28;1965;-67
2021/04/03 07:23:08;;;;;;;;;;;20.80;55.10;;;;;;5077303;28;1272;-67
2021/04/03 07:25:39;;;;;;;;;;;20.80;55.10;;;;;;5079733;28;1280;-67
2021/04/03 07:28:05;;;;;;;;;;;20.80;55.20;;;;;;5095029;28;1290;-67
2021/04/03 07:30:40;;;;;;;;;;;20.80;55.20;;;;;;5077521;28;1349;-68
2021/04/03 07:33:06;;;;;;;;;;;20.80;55.20;;;;;;5095185;28;1258;-67
2021/04/03 07:35:33;;;;;;;;;;;20.80;55.30;;;;;;5095864;28;1046;-67
2021/04/03 07:37:58;;;;;;;;;;;20.80;55.30;;;;;;5076727;28;1477;-67
2021/04/03 07:40:24;;;;;;;;;;;20.70;55.30;;;;;;5076095;28;1949;-67
2021/04/03 07:42:49;;;;;;;;;;;20.70;55.30;;;;;;5095194;28;1378;-68
2021/04/03 07:45:30;;;;;;;;;;;20.70;55.40;;;;;;5095247;28;1382;-67
2021/04/03 07:47:55;;;;;;;;;;;20.70;55.40;;;;;;5094874;28;1306;-68
2021/04/03 07:50:39;;;;;;;;;;;20.70;55.40;;;;;;5095139;28;1333;-67
2021/04/03 07:53:04;;;;;;;;;;;20.70;55.50;;;;;;5095005;28;1317;-67
2021/04/03 07:55:30;;;;;;;;;;;20.70;55.50;;;;;;5095030;28;1293;-67
2021/04/03 07:58:14;;;;;;;;;;;20.60;55.50;;;;;;5095131;28;1219;-67
2021/04/03 08:00:40;;;;;;;;;;;20.60;55.50;;;;;;5095042;28;1956;-66
2021/04/03 08:03:05;;;;;;;;;;;20.60;55.60;;;;;;5076931;28;1345;-66
2021/04/03 08:05:31;;;;;;;;;;;20.60;55.60;;;;;;5089003;28;1514;-67
2021/04/03 08:07:56;;;;;;;;;;;20.60;55.60;;;;;;5056542;28;1344;-66
2021/04/03 08:10:23;;;;;;;;;;;20.60;55.60;;;;;;5077270;28;1416;-66
2021/04/03 08:12:48;;;;;;;;;;;20.60;55.60;;;;;;5082202;28;1363;-66
2021/04/03 08:15:17;;;;;;;;;;;20.60;55.60;;;;;;5087164;28;1411;-66
2021/04/03 08:17:43;;;;;;;;;;;20.60;55.70;;;;;;5072647;28;1361;-67
2021/04/03 08:20:08;;;;;;;;;;;20.60;55.70;;;;;;5072753;28;1901;-67
2021/04/03 08:22:34;;;;;;;;;;;20.50;55.70;;;;;;5074085;28;1286;-67
2021/04/03 08:24:59;;;;;;;;;;;20.50;55.70;;;;;;5075573;28;1384;-66
2021/04/03 08:27:32;;;;;;;;;;;20.50;55.70;;;;;;5094196;28;1275;-68
2021/04/03 08:29:57;;;;;;;;;;;20.50;55.70;;;;;;5094560;28;1479;-66
2021/04/03 08:32:22;;;;;;;;;;;20.50;55.70;;;;;;5094342;28;1318;-67
2021/04/03 08:34:48;;;;;;;;;;;20.50;55.80;;;;;;5094415;28;1390;-67
2021/04/03 08:37:14;;;;;;;;;;;20.50;55.80;;;;;;5093777;28;1289;-68
2021/04/03 08:39:39;;;;;;;;;;;20.50;55.80;;;;;;5094544;28;1961;-67
2021/04/03 08:42:05;;;;;;;;;;;20.50;55.80;;;;;;5094199;28;1269;-68
2021/04/03 08:44:30;;;;;;;;;;;20.50;55.80;;;;;;5094149;28;1315;-67
2021/04/03 08:47:00;;;;;;;;;;;20.50;55.90;;;;;;5075933;28;1361;-67
2021/04/03 08:49:29;;;;;;;;;;;20.40;55.90;;;;;;5093900;28;1432;-68
2021/04/03 08:51:55;;;;;;;;;;;20.40;55.90;;;;;;5094232;28;1281;-68
2021/04/03 08:54:20;;;;;;;;;;;20.40;55.90;;;;;;5093823;28;1293;-68
2021/04/03 08:56:46;;;;;;;;;;;20.40;55.90;;;;;;5093726;28;1389;-68
2021/04/03 08:59:12;;;;;;;;;;;20.40;55.90;;;;;;5093408;28;1909;-68
2021/04/03 09:01:39;;;;;;;;;;;20.50;55.90;;;;;;5093787;28;1654;-67
2021/04/03 09:04:06;;;;;;;;;;;20.40;55.90;;;;;;5089860;28;1480;-67
2021/04/03 09:06:51;;;;;;;;;;;20.40;55.90;;;;;;5084482;28;1339;-67
2021/04/03 09:09:18;;;;;;;;;;;20.40;56.00;;;;;;5073697;28;1287;-67
2021/04/03 09:11:52;;;;;;;;;;;20.40;56.00;;;;;;5071538;28;1023;-67
2021/04/03 09:14:36;;;;;;;;;;;20.40;56.00;;;;;;5056313;28;1916;-67
2021/04/03 09:17:06;;;;;;;;;;;20.40;56.00;;;;;;5074858;28;1320;-67
2021/04/03 09:19:32;;;;;;;;;;;20.40;56.00;;;;;;5068966;28;1902;-66
2021/04/03 09:21:57;;;;;;;;;;;20.30;56.00;;;;;;5074211;28;1686;-66
2021/04/03 09:24:39;;;;;;;;;;;20.30;56.00;;;;;;5093370;28;1411;-67
2021/04/03 09:27:11;;;;;;;;;;;20.30;56.00;;;;;;5074923;28;1293;-67
2021/04/03 09:29:37;;;;;;;;;;;20.30;56.10;;;;;;5092875;28;1296;-68
2021/04/03 09:32:03;;;;;;;;;;;20.30;56.10;;;;;;5091653;28;1384;-69
2021/04/03 09:34:32;;;;;;;;;;;20.30;56.10;;;;;;5075089;28;1344;-70
2021/04/03 09:36:59;;;;;;;;;;;20.30;56.10;;;;;;5092733;28;1326;-69
2021/04/03 09:39:25;;;;;;;;;;;20.30;56.20;;;;;;5074788;28;1952;-69
2021/04/03 09:41:53;;;;;;;;;;;20.30;56.20;;;;;;5093314;28;1392;-69
2021/04/03 09:44:18;;;;;;;;;;;20.30;56.20;;;;;;5075157;28;1529;-68
2021/04/03 09:46:44;;;;;;;;;;;20.30;56.20;;;;;;5074953;28;1291;-69
2021/04/03 09:49:09;;;;;;;;;;;20.30;56.20;;;;;;5085728;28;2034;-70
2021/04/03 09:51:35;;;;;;;;;;;20.30;56.30;;;;;;5065470;28;1140;-69
2021/04/03 09:54:00;;;;;;;;;;;20.30;56.30;;;;;;5075472;28;1115;-70
2021/04/03 09:56:26;;;;;;;;;;;20.30;56.30;;;;;;5066249;28;1984;-70
2021/04/03 09:58:53;;;;;;;;;;;20.30;56.30;;;;;;5069109;28;1369;-69
2021/04/03 10:01:18;;;;;;;;;;;20.20;56.30;;;;;;5071705;28;2035;-70
2021/04/03 10:03:44;;;;;;;;;;;20.20;56.30;;;;;;5072634;28;1103;-70
2021/04/03 10:06:09;;;;;;;;;;;20.20;56.30;;;;;;5086841;28;1092;-70
2021/04/03 10:08:35;;;;;;;;;;;20.20;56.40;;;;;;5090140;28;1308;-70
2021/04/03 10:11:00;;;;;;;;;;;20.20;56.40;;;;;;5081808;28;1273;-70
2021/04/03 10:13:25;;;;;;;;;;;20.20;56.40;;;;;;5072156;28;1290;-69
2021/04/03 10:15:51;;;;;;;;;;;20.20;56.40;;;;;;5092868;28;1317;-70
2021/04/03 10:18:16;;;;;;;;;;;20.20;56.40;;;;;;5092285;28;1266;-69
2021/04/03 10:20:43;;;;;;;;;;;20.20;56.40;;;;;;5092654;28;1902;-69
2021/04/03 10:23:08;;;;;;;;;;;20.20;56.40;;;;;;5089538;28;1385;-70
2021/04/03 10:25:34;;;;;;;;;;;20.20;56.40;;;;;;5077543;28;1125;-69
2021/04/03 10:27:59;;;;;;;;;;;20.20;56.40;;;;;;5072003;28;1355;-70
2021/04/03 10:30:25;;;;;;;;;;;20.20;56.50;;;;;;5072495;28;1326;-69
2021/04/03 10:32:50;;;;;;;;;;;20.20;56.40;;;;;;5072344;28;1334;-69
2021/04/03 10:35:16;;;;;;;;;;;20.20;56.50;;;;;;5072643;28;1404;-70
2021/04/03 10:37:41;;;;;;;;;;;20.20;56.50;;;;;;5072100;28;1354;-70
2021/04/03 10:40:07;;;;;;;;;;;20.20;56.50;;;;;;5072360;28;1893;-69
2021/04/03 10:42:32;;;;;;;;;;;20.20;56.50;;;;;;5070936;28;1340;-70
2021/04/03 10:44:58;;;;;;;;;;;20.20;56.50;;;;;;5072358;28;1345;-70
2021/04/03 10:47:23;;;;;;;;;;;20.10;56.40;;;;;;5070620;28;1389;-70
2021/04/03 10:49:48;;;;;;;;;;;20.20;56.50;;;;;;5072371;28;1244;-70
2021/04/03 10:52:14;;;;;;;;;;;20.20;56.50;;;;;;5071030;28;1394;-69
2021/04/03 10:54:39;;;;;;;;;;;20.10;56.50;;;;;;5054283;28;1332;-70
2021/04/03 10:57:05;;;;;;;;;;;20.20;56.50;;;;;;5071773;28;1476;-68
2021/04/03 10:59:30;;;;;;;;;;;20.20;56.60;;;;;;5070671;28;1902;-68
2021/04/03 11:01:56;;;;;;;;;;;20.20;56.50;;;;;;5072185;28;1318;-68
2021/04/03 11:04:21;;;;;;;;;;;20.10;56.50;;;;;;5072184;28;1079;-67
2021/04/03 11:06:47;;;;;;;;;;;20.10;56.50;;;;;;5072008;28;1402;-68
2021/04/03 11:09:12;;;;;;;;;;;20.10;56.50;;;;;;5071908;28;1327;-68
2021/04/03 11:11:37;;;;;;;;;;;20.10;56.50;;;;;;5072029;28;1273;-68
2021/04/03 11:14:03;;;;;;;;;;;20.10;56.50;;;;;;5080033;28;1239;-67
2021/04/03 11:16:30;;;;;;;;;;;20.10;56.50;;;;;;5095196;28;1255;-67
2021/04/03 11:18:55;;;;;;;;;;;20.10;56.50;;;;;;5077200;28;1473;-68
2021/04/03 11:21:21;;;;;;;;;;;20.10;56.50;;;;;;5077597;28;1901;-67
2021/04/03 11:23:48;;;;;;;;;;;20.10;56.50;;;;;;5095536;28;1415;-68
2021/04/03 11:26:13;;;;;;;;;;;20.10;56.60;;;;;;5077722;28;1334;-68
2021/04/03 11:28:39;;;;;;;;;;;20.10;56.60;;;;;;5094741;28;1205;-68
2021/04/03 11:31:04;;;;;;;;;;;20.10;56.60;;;;;;5095569;28;1434;-69
2021/04/03 11:33:30;;;;;;;;;;;20.10;56.50;;;;;;5095604;28;1454;-70
2021/04/03 11:35:55;;;;;;;;;;;20.10;56.50;;;;;;5095556;28;1254;-70
2021/04/03 11:38:20;;;;;;;;;;;20.10;56.50;;;;;;5095152;28;1291;-69
2021/04/03 11:40:46;;;;;;;;;;;20.10;56.50;;;;;;5077326;28;1973;-69
2021/04/03 11:43:12;;;;;;;;;;;20.10;56.50;;;;;;5095308;28;1094;-70
2021/04/03 11:45:37;;;;;;;;;;;20.10;56.50;;;;;;5095312;28;1324;-70
2021/04/03 11:48:03;;;;;;;;;;;20.10;56.50;;;;;;5094993;28;1207;-70
2021/04/03 11:50:28;;;;;;;;;;;20.10;56.50;;;;;;5095344;28;1313;-70
2021/04/03 11:52:54;;;;;;;;;;;20.10;56.50;;;;;;5095170;28;1464;-69
2021/04/03 11:55:20;;;;;;;;;;;20.10;56.50;;;;;;5095337;28;1231;-69
2021/04/03 11:57:45;;;;;;;;;;;20.10;56.40;;;;;;5094368;28;1339;-70
2021/04/03 12:00:11;;;;;;;;;;;20.20;56.40;;;;;;5095211;28;1909;-70
2021/04/03 12:02:37;;;;;;;;;;;20.20;56.30;;;;;;5094935;28;1104;-70
2021/04/03 12:05:03;;;;;;;;;;;20.30;56.20;;;;;;5074814;28;1422;-70
2021/04/03 12:07:28;;;;;;;;;;;20.40;56.10;;;;;;5074130;28;1299;-70
2021/04/03 12:09:54;;;;;;;;;;;20.50;55.90;;;;;;5074597;28;1338;-69
2021/04/03 12:12:19;;;;;;;;;;;20.50;55.70;;;;;;5074440;28;1307;-70
2021/04/03 12:14:44;;;;;;;;;;;20.60;55.50;;;;;;5089012;28;1191;-70
2021/04/03 12:17:10;;;;;;;;;;;20.70;55.40;;;;;;5094387;28;1320;-70
2021/04/03 12:19:35;;;;;;;;;;;20.70;55.30;;;;;;5094450;28;1897;-70
2021/04/03 12:22:01;;;;;;;;;;;20.70;55.20;;;;;;5076562;28;1323;-70
2021/04/03 12:24:27;;;;;;;;;;;20.80;55.20;;;;;;5094551;28;1073;-70
2021/04/03 12:26:52;;;;;;;;;;;20.80;55.10;;;;;;5094119;28;1200;-69
2021/04/03 12:29:18;;;;;;;;;;;20.80;55.00;;;;;;5094133;28;1300;-70
2021/04/03 12:31:43;;;;;;;;;;;20.90;55.00;;;;;;5094450;28;1394;-70
2021/04/03 12:34:09;;;;;;;;;;;20.90;54.90;;;;;;5094221;28;1270;-69
2021/04/03 12:36:34;;;;;;;;;;;20.90;54.70;;;;;;5094423;28;1277;-70
2021/04/03 12:39:00;;;;;;;;;;;21.00;54.70;;;;;;5094006;28;1232;-70
2021/04/03 12:41:25;;;;;;;;;;;21.10;54.60;;;;;;5094050;28;1878;-70
2021/04/03 12:43:50;;;;;;;;;;;21.10;54.50;;;;;;5092472;28;1603;-68
2021/04/03 12:46:16;;;;;;;;;;;21.10;54.40;;;;;;5071753;28;2010;-69
2021/04/03 12:48:42;;;;;;;;;;;21.20;54.30;;;;;;5073255;28;1264;-69
2021/04/03 12:51:07;;;;;;;;;;;21.20;54.30;;;;;;5073876;28;1094;-69
2021/04/03 12:53:32;;;;;;;;;;;21.30;54.20;;;;;;5073690;28;1270;-69
2021/04/03 12:55:58;;;;;;;;;;;21.30;54.20;;;;;;5073534;28;1218;-69
2021/04/03 12:58:23;;;;;;;;;;;21.30;54.10;;;;;;5073115;28;1349;-69
2021/04/03 13:00:49;;;;;;;;;;;21.30;54.00;;;;;;5073633;28;2022;-69
2021/04/03 13:03:14;;;;;;;;;;;21.30;54.00;;;;;;5073631;28;1328;-69
2021/04/03 13:05:40;;;;;;;;;;;21.40;54.00;;;;;;5072220;28;1378;-69
2021/04/03 13:08:05;;;;;;;;;;;21.40;54.00;;;;;;5073135;28;1291;-69
2021/04/03 13:10:31;;;;;;;;;;;21.40;54.00;;;;;;5073298;28;1087;-69
2021/04/03 13:12:56;;;;;;;;;;;21.40;54.00;;;;;;5054526;28;1403;-69
2021/04/03 13:15:22;;;;;;;;;;;21.40;54.00;;;;;;5093689;28;1598;-69
2021/04/03 13:17:47;;;;;;;;;;;21.40;54.00;;;;;;5093261;28;1358;-69
2021/04/03 13:20:13;;;;;;;;;;;21.40;54.10;;;;;;5073335;28;2126;-69
2021/04/03 13:22:39;;;;;;;;;;;21.40;54.10;;;;;;5067441;28;1097;-69
2021/04/03 13:25:05;;;;;;;;;;;21.30;54.00;;;;;;5079676;28;1067;-70
2021/04/03 13:27:30;;;;;;;;;;;21.30;54.10;;;;;;5091225;28;1338;-69
2021/04/03 13:29:56;;;;;;;;;;;21.30;54.10;;;;;;5092639;28;1323;-69
2021/04/03 13:32:21;;;;;;;;;;;21.30;54.10;;;;;;5093302;28;1428;-69
2021/04/03 13:34:47;;;;;;;;;;;21.30;54.20;;;;;;5093529;28;1066;-69
2021/04/03 13:37:12;;;;;;;;;;;21.30;54.20;;;;;;5092383;28;1352;-70
2021/04/03 13:39:39;;;;;;;;;;;21.30;54.30;;;;;;5092805;28;1940;-69
2021/04/03 13:42:05;;;;;;;;;;;21.20;54.30;;;;;;5093222;28;1294;-70
2021/04/03 13:44:30;;;;;;;;;;;21.20;54.30;;;;;;5093365;28;1364;-70
2021/04/03 13:46:55;;;;;;;;;;;21.20;54.30;;;;;;5092973;28;1385;-71
2021/04/03 13:49:21;;;;;;;;;;;21.20;54.40;;;;;;5092741;28;1314;-67
2021/04/03 13:51:46;;;;;;;;;;;21.20;54.40;;;;;;5093082;28;1303;-69
2021/04/03 13:54:12;;;;;;;;;;;21.20;54.50;;;;;;5092821;28;1241;-68
2021/04/03 13:56:37;;;;;;;;;;;21.20;54.50;;;;;;5092963;28;1287;-70
2021/04/03 13:59:03;;;;;;;;;;;21.20;54.50;;;;;;5092972;28;1369;-69
2021/04/03 14:01:28;;;;;;;;;;;21.20;55.20;;;;;;5092946;28;1965;-69
2021/04/03 14:03:53;;;;;;;;;;;21.10;54.60;;;;;;5092880;28;1313;-69
2021/04/03 14:06:19;;;;;;;;;;;21.10;54.70;;;;;;5080333;28;1219;-67
2021/04/03 14:08:44;;;;;;;;;;;21.10;54.70;;;;;;5072260;28;1337;-66
2021/04/03 14:11:10;;;;;;;;;;;21.10;54.70;;;;;;5072638;28;1402;-68
2021/04/03 14:13:35;;;;;;;;;;;21.10;54.80;;;;;;5077343;28;1389;-68
2021/04/03 14:16:02;;;;;;;;;;;21.00;54.70;;;;;;5092752;28;1288;-67
2021/04/03 14:18:28;;;;;;;;;;;21.00;54.70;;;;;;5074514;28;1354;-68
2021/04/03 14:20:54;;;;;;;;;;;21.00;54.70;;;;;;5092845;28;1909;-70
2021/04/03 14:23:19;;;;;;;;;;;21.00;54.80;;;;;;5074543;28;1321;-69
2021/04/03 14:25:44;;;;;;;;;;;21.00;54.80;;;;;;5092614;28;1328;-70